Weather at Jotun A FPSO [CLOSED]

Public forecast

Using degrees Celsius for public forecast. Weather courtesy of forecast.io.

Closest aviation weather report (METAR) to Jotun A FPSO

Closest report is Johan Sverdrup Helipad, 37.4 nm (69.2 km) S.

2024/07/17 18:50 (retrieved 24 minutes ago)

ENJS 171850Z 24011KT 9999 BKN042 14/12 Q1018 W14/S2

Closest aviation forecast (TAF) to Jotun A FPSO

Closest forecast is Oseberg A Platform, 64.0 nm (118.5 km) NNE.

2024/07/17 18:36 (retrieved 38 minutes ago)

TAF ENOA 171700Z 1718/1818 25010KT 9999 FEW008 BKN025 TEMPO 1718/1818 BKN008 PROB40 1723/1809 0100 FG VV001 BECMG 1805/1807 18012KT BECMG 1810/1812 17022KT